createdAt,value
2019-05-30T00:01:50.014Z,9.40
2019-05-30T00:04:20.406Z,9.40
2019-05-30T00:06:50.743Z,9.40
2019-05-30T00:09:21.470Z,9.40
2019-05-30T00:11:52.223Z,9.30
2019-05-30T00:14:22.549Z,9.30
2019-05-30T00:16:52.980Z,9.30
2019-05-30T00:19:23.761Z,9.30
2019-05-30T00:21:54.757Z,9.30
2019-05-30T00:24:25.198Z,9.30
2019-05-30T00:26:56.220Z,9.30
2019-05-30T00:29:26.643Z,9.30
2019-05-30T00:31:57.480Z,9.30
2019-05-30T00:34:27.923Z,9.30
2019-05-30T00:36:58.336Z,9.30
2019-05-30T00:39:29.844Z,9.20
2019-05-30T00:42:01.963Z,9.10
2019-05-30T00:44:32.518Z,9.10
2019-05-30T00:47:02.879Z,9.10
2019-05-30T00:49:33.500Z,9.10
2019-05-30T00:52:05.115Z,9.00
2019-05-30T00:54:35.650Z,8.70
2019-05-30T00:57:07.018Z,8.60
2019-05-30T00:59:37.442Z,8.50
2019-05-30T01:02:07.814Z,8.50
2019-05-30T01:04:38.199Z,8.40
2019-05-30T01:07:08.869Z,8.40
2019-05-30T01:09:39.727Z,8.50
2019-05-30T01:12:10.871Z,8.50
2019-05-30T01:14:41.232Z,8.50
2019-05-30T01:17:11.946Z,8.50
2019-05-30T01:19:42.703Z,8.40
2019-05-30T01:22:13.468Z,8.50
2019-05-30T01:24:43.804Z,8.50
2019-05-30T01:27:14.511Z,8.40
2019-05-30T01:29:44.925Z,8.40
2019-05-30T01:32:31.083Z,8.40
2019-05-30T01:35:02.072Z,8.40
2019-05-30T01:37:32.969Z,8.30
2019-05-30T01:40:04.262Z,8.30
2019-05-30T01:42:34.791Z,8.30
2019-05-30T01:45:08.464Z,8.20
2019-05-30T01:47:39.035Z,8.20
2019-05-30T01:50:11.472Z,8.20
2019-05-30T01:52:41.831Z,8.10
2019-05-30T01:55:12.203Z,8.10
2019-05-30T01:57:42.560Z,8.10
2019-05-30T02:00:20.601Z,8.10
2019-05-30T02:02:47.931Z,8.10
2019-05-30T02:05:18.634Z,8.10
2019-05-30T02:07:49.373Z,8.10
2019-05-30T02:10:19.737Z,8.10
2019-05-30T02:12:50.118Z,8.00
2019-05-30T02:15:20.470Z,8.00
2019-05-30T02:17:50.877Z,8.00
2019-05-30T02:20:22.008Z,8.00
2019-05-30T02:22:52.346Z,8.00
2019-05-30T02:25:23.141Z,7.90
2019-05-30T02:27:53.742Z,7.90
2019-05-30T02:30:24.446Z,7.80
2019-05-30T02:32:54.866Z,7.70
2019-05-30T02:35:25.231Z,7.70
2019-05-30T02:37:55.603Z,7.70
2019-05-30T02:40:26.298Z,7.70
2019-05-30T02:42:57.007Z,7.60
2019-05-30T02:45:27.412Z,7.50
2019-05-30T02:47:58.171Z,7.50
2019-05-30T02:50:28.534Z,7.50
2019-05-30T02:52:58.885Z,7.50
2019-05-30T02:55:29.648Z,7.40
2019-05-30T02:58:01.323Z,7.40
2019-05-30T03:00:36.714Z,7.40
2019-05-30T03:03:11.084Z,7.40
2019-05-30T03:05:39.586Z,7.50
2019-05-30T03:08:13.746Z,7.50
2019-05-30T03:10:42.421Z,7.40
2019-05-30T03:13:13.141Z,7.40
2019-05-30T03:15:43.500Z,7.40
2019-05-30T03:18:15.094Z,7.30
2019-05-30T03:20:45.866Z,7.40
2019-05-30T03:23:16.463Z,7.50
2019-05-30T03:25:46.979Z,7.50
2019-05-30T03:28:17.301Z,7.60
2019-05-30T03:30:47.722Z,7.60
2019-05-30T03:33:36.697Z,7.50
2019-05-30T03:35:50.787Z,7.40
2019-05-30T03:38:21.797Z,7.40
2019-05-30T03:40:52.866Z,7.30
2019-05-30T03:43:23.294Z,7.30
2019-05-30T03:45:54.030Z,7.50
2019-05-30T03:48:24.386Z,7.60
2019-05-30T03:50:54.774Z,7.70
2019-05-30T03:53:25.525Z,7.80
2019-05-30T03:56:00.990Z,8.00
2019-05-30T03:58:53.716Z,8.10
2019-05-30T04:01:37.914Z,8.10
2019-05-30T04:04:16.686Z,8.10
2019-05-30T04:06:54.897Z,8.20
2019-05-30T04:09:25.489Z,8.30
2019-05-30T04:12:19.985Z,8.40
2019-05-30T04:14:53.403Z,8.50
2019-05-30T04:17:24.157Z,8.60
2019-05-30T04:19:54.780Z,8.70
2019-05-30T04:22:25.197Z,8.80
2019-05-30T04:24:55.994Z,8.90
2019-05-30T04:27:26.318Z,9.00
2019-05-30T04:29:56.743Z,9.10
2019-05-30T04:32:27.460Z,9.20
2019-05-30T04:34:57.824Z,9.30
2019-05-30T04:37:28.217Z,9.40
2019-05-30T04:39:58.573Z,9.40
2019-05-30T04:42:28.972Z,9.60
2019-05-30T04:44:59.335Z,9.60
2019-05-30T04:47:29.698Z,9.70
2019-05-30T04:50:00.105Z,9.80
2019-05-30T04:52:30.429Z,9.80
2019-05-30T04:55:00.793Z,9.90
2019-05-30T04:57:31.498Z,10.10
2019-05-30T05:00:01.932Z,10.20
2019-05-30T05:02:32.337Z,10.20
2019-05-30T05:05:02.724Z,10.30
2019-05-30T05:07:33.070Z,10.40
2019-05-30T05:10:04.406Z,10.50
2019-05-30T05:12:34.769Z,10.60
2019-05-30T05:15:06.168Z,10.60
2019-05-30T05:17:36.561Z,10.80
2019-05-30T05:20:08.433Z,10.80
2019-05-30T05:22:38.852Z,10.90
2019-05-30T05:25:09.685Z,11.00
2019-05-30T05:27:40.366Z,11.20
2019-05-30T05:30:11.272Z,11.30
2019-05-30T05:32:41.667Z,11.30
2019-05-30T05:35:12.086Z,11.50
2019-05-30T05:37:42.785Z,11.60
2019-05-30T05:40:13.154Z,11.70
2019-05-30T05:42:43.534Z,11.70
2019-05-30T05:45:13.907Z,11.90
2019-05-30T05:47:44.779Z,12.00
2019-05-30T05:50:16.564Z,12.00
2019-05-30T05:52:47.194Z,12.20
2019-05-30T05:55:18.686Z,12.30
2019-05-30T05:57:49.436Z,12.40
2019-05-30T06:00:21.147Z,12.50
2019-05-30T06:02:51.560Z,12.60
2019-05-30T06:05:22.633Z,12.70
2019-05-30T06:07:53.033Z,12.80
2019-05-30T06:10:23.743Z,12.90
2019-05-30T06:12:54.249Z,13.00
2019-05-30T06:15:25.007Z,13.20
2019-05-30T06:17:55.623Z,13.20
2019-05-30T06:20:27.405Z,13.30
2019-05-30T06:22:57.920Z,13.30
2019-05-30T06:25:32.577Z,13.40
2019-05-30T06:28:00.784Z,13.50
2019-05-30T06:30:31.138Z,13.50
2019-05-30T06:33:01.871Z,13.60
2019-05-30T06:35:32.237Z,13.70
2019-05-30T06:38:02.611Z,13.80
2019-05-30T06:40:33.013Z,13.90
2019-05-30T06:43:03.666Z,14.00
2019-05-30T06:45:34.048Z,14.20
2019-05-30T06:48:04.423Z,14.30
2019-05-30T06:50:34.855Z,14.40
2019-05-30T06:53:05.196Z,14.50
2019-05-30T06:55:35.691Z,14.60
2019-05-30T06:58:06.315Z,14.80
2019-05-30T07:00:36.714Z,14.90
2019-05-30T07:03:07.541Z,15.00
2019-05-30T07:05:40.194Z,15.10
2019-05-30T07:08:10.939Z,15.20
2019-05-30T07:10:41.315Z,15.30
2019-05-30T07:13:11.691Z,15.40
2019-05-30T07:15:41.787Z,15.50
2019-05-30T07:18:12.138Z,15.60
2019-05-30T07:20:42.847Z,15.70
2019-05-30T07:23:13.654Z,15.80
2019-05-30T07:25:44.385Z,15.90
2019-05-30T07:28:14.774Z,16.00
2019-05-30T07:30:45.056Z,16.00
2019-05-30T07:33:15.445Z,16.10
2019-05-30T07:35:45.807Z,16.20
2019-05-30T07:38:16.398Z,16.30
2019-05-30T07:40:47.276Z,16.40
2019-05-30T07:43:17.643Z,16.50
2019-05-30T07:45:57.692Z,16.60
2019-05-30T07:48:20.456Z,16.70
2019-05-30T07:50:51.478Z,16.80
2019-05-30T07:53:22.174Z,16.90
2019-05-30T07:55:52.974Z,17.00
2019-05-30T07:58:23.682Z,17.10
2019-05-30T08:00:54.458Z,17.20
2019-05-30T08:03:24.919Z,17.30
2019-05-30T08:05:55.270Z,17.40
2019-05-30T08:08:25.609Z,17.50
2019-05-30T08:11:09.029Z,17.60
2019-05-30T08:13:28.995Z,17.70
2019-05-30T08:15:59.802Z,17.80
2019-05-30T08:18:31.574Z,17.90
2019-05-30T08:21:02.613Z,18.00
2019-05-30T08:23:34.153Z,18.10
2019-05-30T08:26:05.398Z,18.10
2019-05-30T08:28:36.430Z,18.20
2019-05-30T08:31:06.858Z,18.30
2019-05-30T08:33:37.662Z,18.30
2019-05-30T08:36:08.078Z,18.40
2019-05-30T08:38:39.371Z,18.50
2019-05-30T08:41:10.365Z,18.60
2019-05-30T08:43:40.947Z,18.70
2019-05-30T08:46:11.322Z,18.70
2019-05-30T08:48:41.675Z,18.80
2019-05-30T08:51:12.410Z,18.80
2019-05-30T08:53:42.784Z,18.80
2019-05-30T08:56:13.490Z,18.90
2019-05-30T08:58:44.197Z,19.00
2019-05-30T09:01:14.853Z,19.10
2019-05-30T09:03:46.299Z,19.00
2019-05-30T09:06:16.753Z,19.10
2019-05-30T09:08:47.102Z,19.10
2019-05-30T09:11:17.836Z,19.20
2019-05-30T09:13:48.587Z,19.30
2019-05-30T09:16:19.313Z,19.40
2019-05-30T09:18:49.648Z,19.50
2019-05-30T09:21:20.101Z,19.50
2019-05-30T09:23:50.455Z,19.60
2019-05-30T09:26:20.788Z,19.70
2019-05-30T09:28:51.236Z,19.80
2019-05-30T09:31:21.978Z,19.90
2019-05-30T09:33:52.722Z,19.90
2019-05-30T09:36:23.458Z,20.00
2019-05-30T09:38:53.844Z,20.10
2019-05-30T09:41:24.212Z,20.20
2019-05-30T09:43:54.927Z,20.30
2019-05-30T09:46:25.638Z,20.40
2019-05-30T09:48:56.827Z,20.40
2019-05-30T09:51:27.162Z,20.60
2019-05-30T09:53:57.528Z,20.80
2019-05-30T09:56:28.466Z,20.90
2019-05-30T09:58:58.855Z,20.70
2019-05-30T10:01:29.252Z,20.80
2019-05-30T10:03:59.683Z,20.80
2019-05-30T10:06:30.428Z,20.80
2019-05-30T10:09:01.070Z,20.90
2019-05-30T10:11:32.154Z,20.90
2019-05-30T10:14:02.496Z,20.90
2019-05-30T10:16:33.252Z,20.90
2019-05-30T10:19:03.591Z,20.90
2019-05-30T10:21:34.389Z,21.10
2019-05-30T10:24:04.754Z,21.20
2019-05-30T10:26:35.130Z,21.20
2019-05-30T10:29:05.463Z,21.20
2019-05-30T10:31:35.852Z,21.20
2019-05-30T10:34:06.595Z,21.30
2019-05-30T10:36:44.217Z,21.40
2019-05-30T10:39:09.327Z,21.30
2019-05-30T10:41:39.688Z,21.40
2019-05-30T10:44:10.337Z,21.50
2019-05-30T10:46:40.966Z,21.70
2019-05-30T10:49:12.492Z,21.70
2019-05-30T10:51:43.220Z,21.80
2019-05-30T10:54:13.626Z,21.80
2019-05-30T10:56:45.152Z,21.70
2019-05-30T10:59:16.716Z,21.80
2019-05-30T11:01:48.479Z,22.00
2019-05-30T11:04:19.028Z,22.20
2019-05-30T11:07:11.620Z,22.20
2019-05-30T11:09:46.664Z,22.20
2019-05-30T11:12:17.121Z,22.40
2019-05-30T11:14:48.625Z,22.40
2019-05-30T11:17:19.575Z,22.50
2019-05-30T11:19:51.775Z,22.50
2019-05-30T11:22:22.439Z,22.50
2019-05-30T11:24:54.381Z,22.40
2019-05-30T11:27:24.948Z,22.50
2019-05-30T11:29:55.345Z,22.60
2019-05-30T11:32:25.975Z,22.60
2019-05-30T11:34:57.427Z,22.70
2019-05-30T11:37:27.839Z,22.90
2019-05-30T11:39:59.411Z,22.90
2019-05-30T11:42:29.935Z,23.00
2019-05-30T11:45:00.313Z,23.00
2019-05-30T11:47:30.776Z,23.10
2019-05-30T11:50:01.542Z,23.10
2019-05-30T11:52:32.173Z,23.10
2019-05-30T11:55:02.534Z,23.30
2019-05-30T11:57:32.897Z,23.40
2019-05-30T12:00:07.970Z,23.50
2019-05-30T12:02:58.701Z,23.60
2019-05-30T12:05:29.478Z,23.70
2019-05-30T12:08:00.956Z,23.60
2019-05-30T12:10:31.427Z,23.70
2019-05-30T12:13:01.763Z,23.80
2019-05-30T12:15:32.502Z,23.90
2019-05-30T12:18:02.869Z,24.10
2019-05-30T12:20:33.612Z,24.10
2019-05-30T12:23:04.268Z,23.90
2019-05-30T12:25:34.650Z,24.00
2019-05-30T12:28:05.143Z,24.10
2019-05-30T12:30:35.528Z,24.00
2019-05-30T12:33:06.137Z,24.10
2019-05-30T12:35:36.593Z,24.00
2019-05-30T12:38:07.329Z,23.90
2019-05-30T12:40:37.949Z,23.50
2019-05-30T12:43:08.315Z,23.40
2019-05-30T12:45:38.722Z,23.50
2019-05-30T12:48:09.200Z,23.60
2019-05-30T12:50:39.614Z,23.90
2019-05-30T12:53:09.970Z,24.00
2019-05-30T12:55:40.618Z,24.00
2019-05-30T12:58:10.998Z,24.00
2019-05-30T13:00:41.362Z,24.20
2019-05-30T13:03:12.038Z,24.30
2019-05-30T13:05:42.769Z,24.30
2019-05-30T13:08:21.327Z,24.50
2019-05-30T13:10:45.604Z,24.60
2019-05-30T13:13:15.999Z,24.70
2019-05-30T13:15:46.335Z,24.80
2019-05-30T13:18:17.123Z,24.90
2019-05-30T13:20:47.438Z,24.80
2019-05-30T13:23:18.453Z,24.80
2019-05-30T13:25:48.813Z,24.60
2019-05-30T13:28:19.188Z,24.40
2019-05-30T13:30:49.565Z,24.50
2019-05-30T13:33:19.924Z,24.70
2019-05-30T13:35:50.708Z,24.50
2019-05-30T13:38:26.421Z,24.60
2019-05-30T13:40:53.437Z,24.70
2019-05-30T13:43:23.775Z,24.70
2019-05-30T13:45:54.387Z,24.90
2019-05-30T13:48:25.102Z,25.00
2019-05-30T13:50:55.462Z,25.00
2019-05-30T13:53:26.093Z,24.90
2019-05-30T13:55:56.532Z,24.90
2019-05-30T13:58:26.934Z,24.90
2019-05-30T14:00:57.278Z,25.10
2019-05-30T14:03:27.636Z,25.20
2019-05-30T14:05:58.291Z,25.20
2019-05-30T14:08:40.769Z,25.30
2019-05-30T14:11:02.492Z,25.50
2019-05-30T14:13:32.840Z,25.50
2019-05-30T14:16:03.243Z,25.50
2019-05-30T14:18:33.611Z,25.50
2019-05-30T14:21:05.163Z,25.50
2019-05-30T14:23:35.610Z,25.50
2019-05-30T14:26:07.317Z,25.60
2019-05-30T14:28:37.758Z,25.70
2019-05-30T14:31:08.926Z,25.70
2019-05-30T14:33:39.772Z,25.60
2019-05-30T14:36:12.623Z,25.70
2019-05-30T14:38:57.125Z,25.80
2019-05-30T14:41:14.733Z,25.90
2019-05-30T14:43:45.386Z,25.80
2019-05-30T14:46:16.673Z,25.60
2019-05-30T14:48:47.158Z,25.60
2019-05-30T14:51:18.052Z,25.60
2019-05-30T14:53:48.751Z,25.50
2019-05-30T14:56:19.121Z,25.40
2019-05-30T14:58:49.869Z,25.20
2019-05-30T15:01:20.358Z,25.20
2019-05-30T15:03:50.740Z,25.20
2019-05-30T15:06:21.702Z,25.30
2019-05-30T15:08:52.339Z,25.30
2019-05-30T15:11:23.067Z,25.30
2019-05-30T15:13:53.449Z,25.30
2019-05-30T15:16:23.875Z,25.20
2019-05-30T15:18:54.221Z,25.20
2019-05-30T15:21:24.603Z,25.30
2019-05-30T15:23:55.738Z,25.30
2019-05-30T15:26:26.416Z,25.20
2019-05-30T15:28:57.109Z,25.20
2019-05-30T15:31:27.623Z,25.30
2019-05-30T15:33:58.367Z,25.50
2019-05-30T15:36:28.801Z,25.40
2019-05-30T15:38:59.158Z,25.40
2019-05-30T15:41:29.568Z,25.30
2019-05-30T15:43:59.934Z,25.20
2019-05-30T15:46:30.729Z,25.20
2019-05-30T15:49:01.084Z,24.90
2019-05-30T15:51:31.443Z,24.90
2019-05-30T15:54:01.896Z,24.90
2019-05-30T15:56:32.324Z,25.00
2019-05-30T15:59:03.083Z,25.00
2019-05-30T16:01:34.127Z,24.90
2019-05-30T16:04:04.534Z,24.80
2019-05-30T16:06:34.874Z,24.90
2019-05-30T16:09:06.998Z,24.80
2019-05-30T16:11:37.339Z,24.70
2019-05-30T16:14:08.030Z,24.60
2019-05-30T16:16:40.450Z,24.40
2019-05-30T16:19:17.255Z,24.10
2019-05-30T16:21:42.919Z,23.90
2019-05-30T16:24:14.299Z,23.90
2019-05-30T16:26:44.943Z,23.80
2019-05-30T16:29:15.735Z,23.70
2019-05-30T16:31:46.099Z,23.60
2019-05-30T16:34:16.505Z,23.70
2019-05-30T16:36:46.946Z,23.60
2019-05-30T16:39:18.202Z,23.50
2019-05-30T16:41:49.109Z,23.40
2019-05-30T16:44:20.438Z,23.40
2019-05-30T16:46:50.857Z,23.40
2019-05-30T16:49:21.250Z,23.40
2019-05-30T16:51:51.737Z,23.30
2019-05-30T16:54:23.192Z,23.40
2019-05-30T16:56:53.869Z,23.40
2019-05-30T16:59:24.207Z,23.40
2019-05-30T17:01:57.880Z,23.40
2019-05-30T17:04:27.246Z,23.40
2019-05-30T17:06:57.631Z,23.50
2019-05-30T17:09:27.971Z,23.50
2019-05-30T17:11:58.777Z,23.60
2019-05-30T17:14:29.209Z,23.50
2019-05-30T17:17:02.679Z,23.40
2019-05-30T17:19:31.673Z,23.40
2019-05-30T17:22:02.038Z,23.40
2019-05-30T17:24:32.377Z,23.40
2019-05-30T17:27:02.725Z,23.40
2019-05-30T17:29:33.229Z,23.40
2019-05-30T17:32:03.941Z,23.40
2019-05-30T17:34:34.623Z,23.40
2019-05-30T17:37:05.438Z,23.40
2019-05-30T17:39:35.840Z,23.30
2019-05-30T17:42:06.182Z,23.30
2019-05-30T17:44:36.587Z,23.20
2019-05-30T17:47:07.330Z,23.10
2019-05-30T17:49:38.058Z,23.00
2019-05-30T17:52:08.461Z,22.90
2019-05-30T17:54:38.807Z,22.70
2019-05-30T17:57:09.168Z,22.50
2019-05-30T17:59:39.531Z,22.20
2019-05-30T18:02:10.388Z,22.10
2019-05-30T18:04:40.751Z,21.90
2019-05-30T18:07:11.103Z,21.80
2019-05-30T18:09:41.814Z,21.60
2019-05-30T18:12:12.214Z,21.50
2019-05-30T18:14:42.577Z,21.40
2019-05-30T18:17:13.219Z,21.30
2019-05-30T18:19:43.953Z,21.20
2019-05-30T18:22:14.385Z,21.10
2019-05-30T18:24:44.959Z,21.00
2019-05-30T18:27:15.676Z,20.90
2019-05-30T18:29:46.097Z,20.90
2019-05-30T18:32:16.411Z,20.90
2019-05-30T18:34:46.796Z,20.80
2019-05-30T18:37:17.525Z,20.80
2019-05-30T18:39:48.060Z,20.70
2019-05-30T18:42:18.409Z,20.70
2019-05-30T18:44:49.104Z,20.60
2019-05-30T18:47:19.491Z,20.60
2019-05-30T18:49:50.150Z,20.50
2019-05-30T18:52:20.511Z,20.40
2019-05-30T18:54:50.874Z,20.40
2019-05-30T18:57:21.636Z,20.30
2019-05-30T18:59:52.329Z,20.30
2019-05-30T19:02:22.723Z,20.20
2019-05-30T19:04:53.060Z,20.20
2019-05-30T19:07:24.678Z,20.20
2019-05-30T19:09:55.040Z,20.10
2019-05-30T19:12:25.952Z,20.10
2019-05-30T19:14:56.368Z,19.90
2019-05-30T19:17:27.680Z,19.90
2019-05-30T19:19:58.114Z,19.90
2019-05-30T19:22:28.531Z,19.80
2019-05-30T19:24:59.266Z,19.80
2019-05-30T19:27:33.390Z,19.80
2019-05-30T19:30:01.778Z,19.70
2019-05-30T19:32:32.749Z,19.70
2019-05-30T19:35:04.170Z,19.70
2019-05-30T19:37:35.367Z,19.70
2019-05-30T19:40:06.430Z,19.70
2019-05-30T19:42:37.903Z,19.70
2019-05-30T19:45:09.600Z,19.70
2019-05-30T19:47:40.018Z,19.60
2019-05-30T19:50:11.083Z,19.60
2019-05-30T19:52:41.514Z,19.60
2019-05-30T19:55:12.500Z,19.60
2019-05-30T19:57:43.207Z,19.50
2019-05-30T20:00:13.643Z,19.50
2019-05-30T20:02:44.069Z,19.50
2019-05-30T20:05:15.406Z,19.50
2019-05-30T20:07:46.019Z,19.40
2019-05-30T20:10:16.677Z,19.40
2019-05-30T20:12:47.055Z,19.40
2019-05-30T20:15:17.421Z,19.40
2019-05-30T20:17:48.286Z,19.30
2019-05-30T20:20:19.024Z,19.30
2019-05-30T20:22:49.421Z,19.30
2019-05-30T20:25:20.997Z,19.30
2019-05-30T20:27:51.430Z,19.30
2019-05-30T20:30:21.796Z,19.20
2019-05-30T20:32:52.161Z,19.20
2019-05-30T20:35:22.572Z,19.10
2019-05-30T20:37:52.941Z,19.10
2019-05-30T20:40:23.459Z,19.00
2019-05-30T20:42:53.822Z,19.00
2019-05-30T20:45:24.254Z,18.90
2019-05-30T20:47:54.655Z,18.80
2019-05-30T20:50:25.021Z,18.70
2019-05-30T20:52:55.841Z,18.70
2019-05-30T20:55:26.205Z,18.70
2019-05-30T20:57:56.575Z,18.60
2019-05-30T21:00:40.112Z,18.60
2019-05-30T21:03:11.069Z,18.60
2019-05-30T21:05:42.125Z,18.50
2019-05-30T21:08:13.219Z,18.50
2019-05-30T21:10:43.994Z,18.40
2019-05-30T21:13:14.357Z,18.40
2019-05-30T21:15:45.778Z,18.30
2019-05-30T21:18:17.431Z,18.30
2019-05-30T21:20:47.764Z,18.30
2019-05-30T21:23:18.102Z,18.30
2019-05-30T21:25:48.512Z,18.20
2019-05-30T21:28:19.146Z,18.10
2019-05-30T21:30:49.491Z,18.10
2019-05-30T21:33:20.198Z,18.00
2019-05-30T21:35:50.633Z,18.00
2019-05-30T21:38:21.365Z,18.00
2019-05-30T21:40:52.049Z,17.90
2019-05-30T21:43:22.385Z,17.90
2019-05-30T21:45:53.124Z,17.80
2019-05-30T21:48:23.459Z,17.80
2019-05-30T21:50:53.863Z,17.70
2019-05-30T21:53:24.972Z,17.60
2019-05-30T21:55:55.586Z,17.50
2019-05-30T21:58:26.322Z,17.40
2019-05-30T22:01:07.322Z,17.30
2019-05-30T22:03:37.715Z,17.20
2019-05-30T22:06:08.079Z,17.10
2019-05-30T22:08:38.792Z,17.00
2019-05-30T22:11:09.159Z,17.00
2019-05-30T22:13:39.520Z,16.90
2019-05-30T22:16:10.275Z,16.90
2019-05-30T22:18:41.856Z,16.80
2019-05-30T22:21:12.585Z,16.80
2019-05-30T22:23:44.146Z,16.80
2019-05-30T22:26:14.890Z,16.70
2019-05-30T22:28:46.282Z,16.70
2019-05-30T22:31:17.171Z,16.70
2019-05-30T22:33:48.685Z,16.60
2019-05-30T22:36:19.475Z,16.60
2019-05-30T22:38:50.792Z,16.50
2019-05-30T22:41:22.057Z,16.50
2019-05-30T22:43:52.940Z,16.50
2019-05-30T22:46:23.405Z,16.50
2019-05-30T22:48:53.748Z,16.50
2019-05-30T22:51:27.408Z,16.50
2019-05-30T22:53:57.322Z,16.40
2019-05-30T22:56:27.736Z,16.40
2019-05-30T22:58:58.149Z,16.30
2019-05-30T23:01:28.510Z,16.20
2019-05-30T23:03:59.198Z,16.20
2019-05-30T23:06:29.588Z,16.20
2019-05-30T23:08:59.991Z,16.20
2019-05-30T23:11:30.759Z,16.10
2019-05-30T23:14:01.127Z,16.20
2019-05-30T23:16:31.530Z,16.10
2019-05-30T23:19:01.867Z,16.20
2019-05-30T23:21:32.253Z,16.20
2019-05-30T23:24:03.367Z,16.10
2019-05-30T23:26:33.686Z,16.10
2019-05-30T23:29:04.187Z,16.10
2019-05-30T23:31:34.771Z,16.00
2019-05-30T23:34:05.193Z,16.00
2019-05-30T23:36:36.348Z,16.00
2019-05-30T23:39:07.594Z,16.00
2019-05-30T23:41:37.959Z,16.00
2019-05-30T23:44:11.665Z,15.90
2019-05-30T23:46:40.357Z,15.90
2019-05-30T23:49:10.771Z,15.80
2019-05-30T23:51:41.134Z,15.80
2019-05-30T23:54:11.547Z,15.70
2019-05-30T23:56:42.510Z,15.70
2019-05-30T23:59:13.076Z,15.70
